Time;durP1;ratioP1;P1;durP2;ratioP2;P2;SDS_P1;SDS_P2;PMS_P1;PMS_P2;Temp;Humidity;BMP_temperature;BMP_pressure;BME280_temperature;BME280_humidity;BME280_pressure;Samples;Min_cycle;Max_cycle;Signal;HPM_P1;HPM_P2
2022/03/13 00:00:23;;;;;;;11.82;6.63;;;10.70;99.90;;;;;;5062919;28;20032;-74
2022/03/13 00:02:50;;;;;;;11.02;6.20;;;10.70;99.90;;;;;;5057585;28;20021;-75
2022/03/13 00:05:16;;;;;;;14.85;6.63;;;10.60;99.90;;;;;;5057213;28;20029;-75
2022/03/13 00:07:47;;;;;;;14.90;6.30;;;10.60;99.90;;;;;;5039300;28;20074;-74
2022/03/13 00:10:19;;;;;;;17.80;7.10;;;10.50;99.90;;;;;;5039894;28;20055;-74
2022/03/13 00:12:47;;;;;;;10.45;5.97;;;10.50;99.90;;;;;;5057077;28;20132;-74
2022/03/13 00:15:13;;;;;;;11.88;6.53;;;10.50;99.90;;;;;;5023145;28;20093;-75
2022/03/13 00:17:40;;;;;;;11.13;6.07;;;10.50;99.90;;;;;;5039525;28;20041;-75
2022/03/13 00:20:08;;;;;;;15.63;5.97;;;10.40;99.90;;;;;;5065355;28;20501;-77
2022/03/13 00:22:36;;;;;;;12.27;6.90;;;10.40;99.90;;;;;;5056438;28;20450;-74
2022/03/13 00:25:06;;;;;;;11.32;6.00;;;10.40;99.90;;;;;;5039443;28;20028;-80
2022/03/13 00:27:34;;;;;;;13.77;6.70;;;10.30;99.90;;;;;;5038978;28;20112;-74
2022/03/13 00:30:01;;;;;;;12.50;6.13;;;10.40;99.90;;;;;;5057435;28;20419;-74
2022/03/13 00:32:27;;;;;;;11.07;6.65;;;10.40;99.90;;;;;;5039316;28;20080;-75
2022/03/13 00:34:53;;;;;;;10.97;6.83;;;10.40;99.90;;;;;;5056906;28;20108;-75
2022/03/13 00:37:19;;;;;;;9.57;5.77;;;10.40;99.90;;;;;;5056611;28;20037;-75
2022/03/13 00:39:49;;;;;;;12.67;6.50;;;10.40;99.90;;;;;;5056346;28;20048;-75
2022/03/13 00:42:15;;;;;;;10.27;6.28;;;10.40;99.90;;;;;;5056993;28;20032;-75
2022/03/13 00:44:41;;;;;;;11.88;6.47;;;10.40;99.90;;;;;;5038790;28;20025;-74
2022/03/13 00:47:07;;;;;;;13.03;6.20;;;10.50;99.90;;;;;;5056835;28;20326;-75
2022/03/13 00:49:33;;;;;;;15.30;6.37;;;10.50;99.90;;;;;;5056568;28;20083;-75
2022/03/13 00:52:00;;;;;;;10.60;5.70;;;10.50;99.90;;;;;;5038041;28;20029;-75
2022/03/13 00:54:26;;;;;;;10.60;6.15;;;10.50;99.90;;;;;;5056132;28;20024;-75
2022/03/13 00:56:54;;;;;;;11.80;5.53;;;10.50;99.90;;;;;;5056571;28;20021;-75
2022/03/13 00:59:21;;;;;;;10.20;5.35;;;10.50;99.90;;;;;;5042965;28;20120;-74
2022/03/13 01:01:46;;;;;;;13.07;5.95;;;10.50;99.90;;;;;;5056543;28;20047;-74
2022/03/13 01:04:12;;;;;;;11.87;5.40;;;10.50;99.90;;;;;;5056419;28;20017;-74
2022/03/13 01:06:40;;;;;;;11.87;5.87;;;10.60;99.90;;;;;;5038992;28;20059;-75
2022/03/13 01:09:06;;;;;;;10.88;5.78;;;10.50;99.90;;;;;;5039323;28;20029;-75
2022/03/13 01:11:31;;;;;;;9.20;5.13;;;10.60;99.90;;;;;;5056970;28;20397;-74
2022/03/13 01:13:57;;;;;;;13.57;5.97;;;10.60;99.90;;;;;;5056456;28;20108;-74
2022/03/13 01:16:27;;;;;;;12.17;6.30;;;10.50;99.90;;;;;;5063583;28;20357;-75
2022/03/13 01:18:58;;;;;;;13.48;5.97;;;10.40;99.90;;;;;;5056028;28;20035;-74
2022/03/13 01:21:24;;;;;;;11.63;6.07;;;10.40;99.90;;;;;;5045541;28;20052;-74
2022/03/13 01:23:59;;;;;;;12.55;5.68;;;10.40;99.90;;;;;;5057544;28;20057;-74
2022/03/13 01:26:25;;;;;;;8.63;5.32;;;10.50;99.90;;;;;;5056167;28;20021;-74
2022/03/13 01:28:56;;;;;;;12.73;5.23;;;10.50;99.90;;;;;;5056112;28;20021;-74
2022/03/13 01:31:28;;;;;;;11.32;6.18;;;10.50;99.90;;;;;;5056213;28;20049;-74
2022/03/13 01:33:54;;;;;;;9.05;4.63;;;10.50;99.90;;;;;;5023138;28;20643;-75
2022/03/13 01:36:20;;;;;;;9.50;5.43;;;10.50;99.90;;;;;;5061953;28;20040;-74
2022/03/13 01:38:46;;;;;;;9.83;5.30;;;10.50;99.90;;;;;;5055589;28;21043;-74
2022/03/13 01:41:12;;;;;;;9.23;5.40;;;10.50;99.90;;;;;;5056248;28;20028;-74
2022/03/13 01:43:37;;;;;;;8.53;4.90;;;10.40;99.90;;;;;;5055331;28;20029;-74
2022/03/13 01:46:04;;;;;;;9.73;5.73;;;10.40;99.90;;;;;;5055779;28;20036;-82
2022/03/13 01:48:37;;;;;;;10.60;5.07;;;10.30;99.90;;;;;;5055695;28;20028;-74
2022/03/13 01:51:05;;;;;;;14.68;5.55;;;10.30;99.90;;;;;;5055732;28;20021;-75
2022/03/13 01:53:32;;;;;;;11.02;6.20;;;10.30;99.90;;;;;;5037077;28;20120;-80
2022/03/13 01:55:58;;;;;;;9.75;5.70;;;10.20;99.90;;;;;;5055748;28;20039;-74
2022/03/13 01:58:24;;;;;;;8.87;5.10;;;10.20;99.90;;;;;;5050621;28;20437;-74
2022/03/13 02:00:50;;;;;;;9.23;5.63;;;10.20;99.90;;;;;;5037525;28;20265;-75
2022/03/13 02:03:16;;;;;;;8.93;4.73;;;10.20;99.90;;;;;;5038211;28;20432;-74
2022/03/13 02:05:45;;;;;;;10.13;5.82;;;10.20;99.90;;;;;;5037174;28;20017;-74
2022/03/13 02:08:14;;;;;;;9.75;5.55;;;10.10;99.90;;;;;;5055296;28;20056;-74
2022/03/13 02:10:39;;;;;;;9.77;5.68;;;10.10;99.90;;;;;;5062162;28;20355;-74
2022/03/13 02:13:06;;;;;;;9.97;5.00;;;10.00;99.90;;;;;;5055196;28;20027;-74
2022/03/13 02:15:32;;;;;;;11.32;4.95;;;10.10;99.90;;;;;;5055343;28;20544;-74
2022/03/13 02:18:01;;;;;;;8.60;5.15;;;10.10;99.90;;;;;;5037351;28;20120;-74
2022/03/13 02:20:27;;;;;;;7.40;4.75;;;10.00;99.90;;;;;;5055355;28;20025;-75
2022/03/13 02:23:00;;;;;;;13.50;5.27;;;10.00;99.90;;;;;;5055626;28;20100;-74
2022/03/13 02:25:31;;;;;;;10.15;5.20;;;10.00;99.90;;;;;;5052151;28;20353;-76
2022/03/13 02:27:58;;;;;;;9.15;4.97;;;10.00;99.90;;;;;;5051381;28;20052;-74
2022/03/13 02:30:26;;;;;;;7.28;4.53;;;10.10;99.90;;;;;;5055178;28;20354;-75
2022/03/13 02:32:55;;;;;;;8.95;5.22;;;9.90;99.90;;;;;;5055370;28;20029;-74
2022/03/13 02:35:21;;;;;;;7.43;4.63;;;9.90;99.90;;;;;;5054657;28;20053;-75
2022/03/13 02:37:47;;;;;;;5.95;4.00;;;9.80;99.90;;;;;;5037051;28;20068;-74
2022/03/13 02:40:18;;;;;;;8.25;4.22;;;9.80;99.90;;;;;;5054264;28;20132;-74
2022/03/13 02:42:44;;;;;;;8.43;4.45;;;9.90;99.90;;;;;;5055466;28;20067;-82
2022/03/13 02:45:10;;;;;;;10.07;4.63;;;9.90;99.90;;;;;;5055168;28;20028;-74
2022/03/13 02:47:36;;;;;;;7.03;3.60;;;9.90;99.90;;;;;;5054632;28;20171;-74
2022/03/13 02:50:02;;;;;;;6.73;4.80;;;10.00;99.90;;;;;;5054021;28;20020;-74
2022/03/13 02:52:28;;;;;;;6.88;4.55;;;9.90;99.90;;;;;;5054475;28;20052;-74
2022/03/13 02:54:53;;;;;;;6.22;3.60;;;9.90;99.90;;;;;;5054964;28;20060;-74
2022/03/13 02:57:19;;;;;;;6.47;3.60;;;9.90;99.90;;;;;;5053097;28;20029;-74
2022/03/13 02:59:45;;;;;;;6.00;3.73;;;9.90;99.90;;;;;;5054537;28;20042;-82
2022/03/13 03:02:10;;;;;;;5.80;3.90;;;9.90;99.90;;;;;;5061442;28;20036;-74
2022/03/13 03:04:36;;;;;;;5.30;3.50;;;9.90;99.90;;;;;;5054454;28;20032;-74
2022/03/13 03:07:04;;;;;;;4.95;2.92;;;9.90;99.90;;;;;;5046285;28;20067;-74
2022/03/13 03:09:31;;;;;;;4.90;3.15;;;9.80;99.90;;;;;;5054378;28;20040;-75
2022/03/13 03:11:59;;;;;;;7.70;3.30;;;9.80;99.90;;;;;;5036821;28;20323;-74
2022/03/13 03:14:25;;;;;;;6.22;3.58;;;9.80;99.90;;;;;;5053348;28;20025;-74
2022/03/13 03:16:50;;;;;;;6.32;3.38;;;9.80;99.90;;;;;;5054360;28;20033;-75
2022/03/13 03:19:16;;;;;;;5.07;2.93;;;9.80;99.90;;;;;;5054981;28;20364;-74
2022/03/13 03:21:42;;;;;;;5.90;3.13;;;9.80;99.90;;;;;;5054377;28;20111;-74
2022/03/13 03:24:16;;;;;;;5.82;3.78;;;9.90;99.90;;;;;;5054151;28;20028;-75
2022/03/13 03:26:42;;;;;;;4.82;3.15;;;9.90;99.90;;;;;;5054169;28;20021;-75
2022/03/13 03:29:08;;;;;;;6.83;3.23;;;9.90;99.90;;;;;;5053844;28;20032;-75
2022/03/13 03:31:40;;;;;;;5.27;3.73;;;10.00;99.90;;;;;;5050633;28;20025;-74
2022/03/13 03:34:09;;;;;;;10.35;4.18;;;10.00;99.90;;;;;;5036645;28;20430;-77
2022/03/13 03:36:39;;;;;;;7.07;3.72;;;10.00;99.90;;;;;;5062209;28;20056;-74
2022/03/13 03:39:07;;;;;;;6.38;3.65;;;10.10;99.90;;;;;;5032775;28;20121;-74
2022/03/13 03:41:33;;;;;;;8.52;3.70;;;10.10;99.90;;;;;;5026186;28;20034;-74
2022/03/13 03:43:59;;;;;;;8.13;3.90;;;10.10;99.90;;;;;;5034089;28;20048;-74
2022/03/13 03:46:25;;;;;;;7.87;3.83;;;10.10;99.90;;;;;;5033844;28;20034;-74
2022/03/13 03:48:50;;;;;;;7.23;4.00;;;10.00;99.90;;;;;;5033215;28;20037;-74
2022/03/13 03:51:17;;;;;;;7.87;4.07;;;10.00;99.90;;;;;;5034276;28;20025;-80
2022/03/13 03:53:43;;;;;;;7.18;4.35;;;9.90;99.90;;;;;;5035647;28;20320;-74
2022/03/13 03:56:09;;;;;;;6.83;4.23;;;9.90;99.90;;;;;;5038853;28;20037;-74
2022/03/13 03:58:34;;;;;;;6.33;4.17;;;9.90;99.90;;;;;;5032871;28;20116;-74
2022/03/13 04:01:00;;;;;;;5.93;3.67;;;9.90;99.90;;;;;;5035774;28;20035;-74
2022/03/13 04:03:26;;;;;;;6.73;3.40;;;9.90;99.90;;;;;;5037774;28;20021;-74
2022/03/13 04:05:51;;;;;;;8.70;3.90;;;10.00;99.90;;;;;;5037739;28;20021;-74
2022/03/13 04:08:17;;;;;;;7.93;4.17;;;10.00;99.90;;;;;;5037983;28;20068;-76
2022/03/13 04:10:43;;;;;;;7.00;4.15;;;9.90;99.90;;;;;;5037012;28;20029;-74
2022/03/13 04:13:09;;;;;;;7.70;3.77;;;9.80;99.90;;;;;;5044279;28;20029;-74
2022/03/13 04:15:34;;;;;;;7.63;4.27;;;9.80;99.90;;;;;;5036677;28;20359;-74
2022/03/13 04:18:00;;;;;;;7.37;4.00;;;9.70;99.90;;;;;;5037752;28;20462;-75
2022/03/13 04:20:26;;;;;;;7.80;3.93;;;9.60;99.90;;;;;;5042923;28;20040;-74
2022/03/13 04:22:51;;;;;;;6.25;3.90;;;9.60;99.90;;;;;;5038789;28;20083;-75
2022/03/13 04:25:17;;;;;;;7.07;3.50;;;9.60;99.90;;;;;;5037376;28;20320;-75
2022/03/13 04:27:44;;;;;;;7.60;3.77;;;9.60;99.90;;;;;;5037343;28;20367;-74
2022/03/13 04:30:10;;;;;;;7.10;3.85;;;9.50;99.90;;;;;;5035338;28;20029;-74
2022/03/13 04:32:35;;;;;;;8.65;3.90;;;9.50;99.90;;;;;;5037278;28;20038;-75
2022/03/13 04:35:01;;;;;;;10.50;4.23;;;9.50;99.90;;;;;;5036144;28;20056;-75
2022/03/13 04:37:27;;;;;;;6.00;3.40;;;9.50;99.90;;;;;;5040477;28;20094;-74
2022/03/13 04:39:54;;;;;;;6.35;3.65;;;9.50;99.90;;;;;;5050106;28;20076;-74
2022/03/13 04:42:20;;;;;;;8.90;3.70;;;9.50;99.90;;;;;;5057001;28;20037;-74
2022/03/13 04:44:46;;;;;;;6.22;3.80;;;9.50;99.90;;;;;;5056032;28;20039;-74
2022/03/13 04:47:12;;;;;;;8.73;3.90;;;9.50;99.90;;;;;;5034950;28;20025;-74
2022/03/13 04:49:38;;;;;;;8.90;4.47;;;9.50;99.90;;;;;;5051510;28;20021;-74
2022/03/13 04:52:05;;;;;;;6.23;3.60;;;9.60;99.90;;;;;;5054691;28;20025;-81
2022/03/13 04:54:30;;;;;;;7.45;3.72;;;9.50;99.90;;;;;;5037730;28;20491;-74
2022/03/13 04:56:57;;;;;;;8.10;4.17;;;9.60;99.90;;;;;;5036181;28;20115;-74
2022/03/13 04:59:22;;;;;;;8.77;4.28;;;9.60;99.90;;;;;;5052161;28;20037;-74
2022/03/13 05:01:48;;;;;;;10.20;4.07;;;9.60;99.90;;;;;;5037801;28;20115;-74
2022/03/13 05:04:15;;;;;;;8.70;4.43;;;9.60;99.90;;;;;;5044222;28;20024;-74
2022/03/13 05:06:43;;;;;;;10.07;5.05;;;9.60;99.90;;;;;;5044918;28;20435;-74
2022/03/13 05:09:08;;;;;;;8.50;5.05;;;9.60;99.90;;;;;;5053036;28;20029;-75
2022/03/13 05:11:34;;;;;;;7.72;4.88;;;9.60;99.90;;;;;;5044684;28;20041;-74
2022/03/13 05:14:00;;;;;;;12.40;5.50;;;9.70;99.90;;;;;;5052753;28;20119;-74
2022/03/13 05:16:26;;;;;;;11.27;5.50;;;9.70;99.90;;;;;;5029677;28;20124;-74
2022/03/13 05:18:52;;;;;;;11.47;5.43;;;9.70;99.90;;;;;;5050442;28;20025;-74
2022/03/13 05:21:18;;;;;;;11.10;6.03;;;9.70;99.90;;;;;;5053862;28;20035;-74
2022/03/13 05:23:44;;;;;;;9.30;4.88;;;9.70;99.90;;;;;;5056141;28;20408;-74
2022/03/13 05:26:10;;;;;;;8.20;5.40;;;9.70;99.90;;;;;;5038272;28;20036;-80
2022/03/13 05:28:36;;;;;;;12.37;5.40;;;9.70;99.90;;;;;;5038417;28;20270;-74
2022/03/13 05:31:02;;;;;;;10.60;5.87;;;9.70;99.90;;;;;;5056301;28;20277;-74
2022/03/13 05:33:27;;;;;;;15.27;6.80;;;9.70;99.90;;;;;;5021857;28;20063;-74
2022/03/13 05:35:54;;;;;;;11.83;5.73;;;9.70;99.90;;;;;;5038225;28;20086;-74
2022/03/13 05:38:20;;;;;;;14.02;7.10;;;9.70;99.90;;;;;;5055242;28;20032;-74
2022/03/13 05:40:45;;;;;;;13.37;6.97;;;9.70;99.90;;;;;;5055934;28;20045;-74
2022/03/13 05:43:12;;;;;;;14.17;7.37;;;9.70;99.90;;;;;;5055441;28;20025;-74
2022/03/13 05:45:39;;;;;;;17.08;7.28;;;9.60;99.90;;;;;;5055837;28;20021;-75
2022/03/13 05:48:15;;;;;;;14.57;7.70;;;9.70;99.90;;;;;;5055747;28;20017;-74
2022/03/13 05:50:41;;;;;;;17.08;7.05;;;9.60;99.90;;;;;;5055621;28;20037;-74
2022/03/13 05:53:07;;;;;;;13.80;6.60;;;9.60;99.90;;;;;;5055698;28;20040;-74
2022/03/13 05:55:33;;;;;;;11.73;7.57;;;9.60;99.90;;;;;;5061917;28;20020;-74
2022/03/13 05:58:00;;;;;;;17.77;7.03;;;9.50;99.90;;;;;;5035693;28;20320;-74
2022/03/13 06:00:27;;;;;;;17.75;8.63;;;9.50;99.90;;;;;;5054269;28;20037;-81
2022/03/13 06:02:53;;;;;;;15.50;7.75;;;9.50;99.90;;;;;;5034857;28;20114;-74
2022/03/13 06:05:20;;;;;;;17.95;8.20;;;9.50;99.90;;;;;;5051767;28;20103;-74
2022/03/13 06:07:48;;;;;;;20.42;7.97;;;9.40;99.90;;;;;;5055017;28;20033;-74
2022/03/13 06:10:14;;;;;;;15.90;7.90;;;9.50;99.90;;;;;;5052195;28;20451;-74
2022/03/13 06:12:40;;;;;;;17.35;7.88;;;9.40;99.90;;;;;;5054139;28;20110;-74
2022/03/13 06:15:09;;;;;;;14.93;8.38;;;9.40;99.90;;;;;;5036844;28;20047;-74
2022/03/13 06:17:40;;;;;;;16.13;8.18;;;9.40;99.90;;;;;;5054332;28;20033;-74
2022/03/13 06:20:10;;;;;;;15.52;8.43;;;9.40;99.90;;;;;;5036035;28;20333;-74
2022/03/13 06:22:37;;;;;;;17.70;8.68;;;9.40;99.90;;;;;;5033249;28;20052;-74
2022/03/13 06:25:02;;;;;;;;;;;9.40;99.90;;;;;;5032165;28;20086;-76
2022/03/13 06:27:29;;;;;;;15.43;7.88;;;9.40;99.90;;;;;;5054123;28;20357;-76
2022/03/13 06:29:55;;;;;;;18.55;9.07;;;9.40;99.90;;;;;;5051268;28;20032;-75
2022/03/13 06:32:21;;;;;;;17.35;9.75;;;9.40;99.90;;;;;;5054066;28;20040;-83
2022/03/13 06:34:48;;;;;;;18.05;9.45;;;9.30;99.90;;;;;;5034804;28;20493;-74
2022/03/13 06:37:13;;;;;;;16.63;9.15;;;9.30;99.90;;;;;;5053498;28;20372;-74
2022/03/13 06:39:39;;;;;;;16.87;9.33;;;9.30;99.90;;;;;;5053861;28;20072;-74
2022/03/13 06:42:05;;;;;;;17.43;10.10;;;9.30;99.90;;;;;;5052579;28;20072;-75
2022/03/13 06:44:31;;;;;;;19.37;9.90;;;9.30;99.90;;;;;;5033378;28;20049;-75
2022/03/13 06:46:57;;;;;;;19.33;10.30;;;9.40;99.90;;;;;;5051175;28;20057;-74
2022/03/13 06:49:22;;;;;;;16.23;9.17;;;9.30;99.90;;;;;;5047949;28;20086;-76
2022/03/13 06:51:48;;;;;;;19.30;9.43;;;9.40;99.90;;;;;;5015814;28;20416;-74
2022/03/13 06:54:14;;;;;;;20.47;9.83;;;9.40;99.90;;;;;;5031007;28;20462;-82
2022/03/13 06:56:40;;;;;;;17.43;8.63;;;9.40;99.90;;;;;;5045896;28;20301;-74
2022/03/13 06:59:06;;;;;;;20.13;9.63;;;9.50;99.90;;;;;;5050607;28;20025;-75
2022/03/13 07:01:38;;;;;;;19.95;10.18;;;9.50;99.90;;;;;;5014286;28;20026;-75
2022/03/13 07:04:04;;;;;;;15.23;9.07;;;9.50;99.90;;;;;;5055390;28;20439;-75
2022/03/13 07:06:30;;;;;;;22.05;11.15;;;9.50;99.90;;;;;;5052776;28;20375;-82
2022/03/13 07:08:55;;;;;;;18.20;9.93;;;9.50;99.90;;;;;;5036843;28;20033;-74
2022/03/13 07:11:22;;;;;;;18.58;9.52;;;9.60;99.90;;;;;;5043054;28;20104;-74
2022/03/13 07:13:48;;;;;;;20.23;10.45;;;9.60;99.90;;;;;;5053003;28;20032;-74
2022/03/13 07:16:15;;;;;;;20.27;10.23;;;9.60;99.90;;;;;;5052391;28;20044;-75
2022/03/13 07:18:42;;;;;;;18.60;9.85;;;9.70;99.90;;;;;;5041040;28;20033;-74
2022/03/13 07:21:08;;;;;;;16.15;8.77;;;9.70;99.90;;;;;;5052475;28;20025;-74
2022/03/13 07:23:34;;;;;;;19.52;9.57;;;9.70;99.90;;;;;;5051421;28;21999;-82
2022/03/13 07:26:00;;;;;;;19.73;10.23;;;9.80;99.90;;;;;;5050821;28;20025;-75
2022/03/13 07:28:26;;;;;;;19.83;9.32;;;9.80;99.90;;;;;;5042352;28;20025;-74
2022/03/13 07:30:52;;;;;;;18.73;8.73;;;9.80;99.90;;;;;;5051168;28;20017;-74
2022/03/13 07:33:17;;;;;;;18.45;9.32;;;9.80;99.90;;;;;;5042861;28;20032;-74
2022/03/13 07:35:44;;;;;;;22.80;10.00;;;9.90;99.90;;;;;;5053419;28;20032;-74
2022/03/13 07:38:10;;;;;;;17.42;9.70;;;9.80;99.90;;;;;;5045915;28;20074;-75
2022/03/13 07:40:36;;;;;;;24.98;10.77;;;9.90;99.90;;;;;;5054434;28;20064;-75
2022/03/13 07:43:03;;;;;;;21.10;10.32;;;10.00;99.90;;;;;;5054030;28;20715;-75
2022/03/13 07:45:29;;;;;;;22.75;9.75;;;10.00;99.90;;;;;;5053220;28;20033;-74
2022/03/13 07:47:57;;;;;;;20.00;9.70;;;10.00;99.90;;;;;;5047804;28;20025;-74
2022/03/13 07:50:24;;;;;;;17.45;8.73;;;10.00;99.90;;;;;;5045937;28;20289;-75
2022/03/13 07:52:50;;;;;;;17.40;9.45;;;10.00;99.90;;;;;;5055615;28;20057;-75
2022/03/13 07:55:17;;;;;;;21.25;8.52;;;10.10;99.90;;;;;;5054995;28;20079;-74
2022/03/13 07:57:43;;;;;;;19.35;9.20;;;10.10;99.90;;;;;;5056565;28;20029;-82
2022/03/13 08:00:12;;;;;;;17.17;9.55;;;10.20;99.90;;;;;;5047370;28;20025;-74
2022/03/13 08:02:39;;;;;;;23.38;10.77;;;10.20;99.90;;;;;;5045218;28;20029;-75
2022/03/13 08:05:05;;;;;;;19.95;9.30;;;10.30;99.90;;;;;;5047117;28;20420;-74
2022/03/13 08:07:30;;;;;;;17.13;8.67;;;10.30;99.90;;;;;;5052728;28;20426;-75
2022/03/13 08:09:58;;;;;;;20.90;10.27;;;10.40;99.90;;;;;;5043239;28;20136;-74
2022/03/13 08:12:23;;;;;;;16.80;8.98;;;10.40;99.90;;;;;;5054060;28;20324;-74
2022/03/13 08:14:50;;;;;;;24.37;10.37;;;10.50;99.90;;;;;;5055961;28;20059;-75
2022/03/13 08:17:15;;;;;;;18.67;9.90;;;10.50;99.90;;;;;;5047070;28;20041;-74
2022/03/13 08:19:41;;;;;;;15.63;8.77;;;10.60;99.90;;;;;;5043074;28;20174;-74
2022/03/13 08:22:07;;;;;;;20.73;9.53;;;10.60;99.90;;;;;;5056253;28;20068;-74
2022/03/13 08:24:33;;;;;;;20.67;10.68;;;10.80;99.90;;;;;;5055865;28;20053;-74
2022/03/13 08:26:59;;;;;;;18.43;9.13;;;11.00;99.90;;;;;;5055660;28;20049;-75
2022/03/13 08:29:24;;;;;;;19.50;10.60;;;11.20;99.90;;;;;;5055492;28;20029;-75
2022/03/13 08:31:50;;;;;;;16.52;9.23;;;11.20;99.90;;;;;;5056110;28;20025;-85
2022/03/13 08:34:15;;;;;;;19.98;10.15;;;11.30;99.90;;;;;;5045925;28;20300;-75
2022/03/13 08:36:47;;;;;;;20.83;8.90;;;11.70;99.90;;;;;;5056081;28;20434;-75
2022/03/13 08:39:13;;;;;;;17.70;10.20;;;12.00;99.90;;;;;;5045913;28;20040;-75
2022/03/13 08:41:39;;;;;;;19.75;9.60;;;12.10;99.90;;;;;;5056021;28;20458;-75
2022/03/13 08:44:05;;;;;;;20.35;8.93;;;12.10;99.90;;;;;;5054969;28;20041;-75
2022/03/13 08:46:30;;;;;;;17.53;9.40;;;12.10;99.90;;;;;;5061477;28;20028;-74
2022/03/13 08:48:56;;;;;;;18.40;8.43;;;12.30;99.90;;;;;;5060495;28;20020;-85
2022/03/13 08:51:23;;;;;;;18.40;9.17;;;12.40;99.90;;;;;;5055928;28;20253;-75
2022/03/13 08:53:50;;;;;;;;;;;12.40;99.70;;;;;;5054776;28;20021;-74
2022/03/13 08:56:16;;;;;;;10.82;4.85;;;12.50;99.50;;;;;;5055660;28;19913;-76
2022/03/13 08:58:42;;;;;;;17.93;9.00;;;12.50;99.00;;;;;;5046553;28;20036;-76
2022/03/13 09:01:11;;;;;;;16.35;9.38;;;12.40;99.80;;;;;;5045641;28;20112;-75
2022/03/13 09:03:37;;;;;;;19.45;9.63;;;12.20;99.90;;;;;;5034216;28;20328;-75
2022/03/13 09:06:03;;;;;;;20.17;10.07;;;12.10;99.90;;;;;;5053029;28;20025;-87
2022/03/13 09:08:29;;;;;;;20.88;10.32;;;11.90;99.90;;;;;;5053401;28;20432;-75
2022/03/13 09:10:55;;;;;;;18.37;9.37;;;11.90;99.90;;;;;;5043360;28;20041;-75
2022/03/13 09:13:21;;;;;;;20.55;9.55;;;11.90;99.90;;;;;;5053101;28;20353;-75
2022/03/13 09:15:47;;;;;;;16.20;8.83;;;11.90;99.90;;;;;;5054969;28;20132;-75
2022/03/13 09:18:13;;;;;;;20.38;9.73;;;12.00;99.90;;;;;;5053425;28;20036;-75
2022/03/13 09:20:39;;;;;;;26.50;11.07;;;12.40;99.90;;;;;;5053577;28;20036;-75
2022/03/13 09:23:08;;;;;;;23.58;9.85;;;12.90;99.80;;;;;;5043124;28;20078;-88
2022/03/13 09:25:35;;;;;;;18.83;9.43;;;13.40;98.80;;;;;;5050932;28;20030;-76
2022/03/13 09:28:02;;;;;;;18.63;10.23;;;13.70;98.00;;;;;;5050920;28;20429;-75
2022/03/13 09:30:28;;;;;;;18.00;9.02;;;13.80;97.60;;;;;;5053183;28;20029;-79
2022/03/13 09:32:54;;;;;;;17.93;8.23;;;13.80;97.50;;;;;;5052722;28;20371;-75
2022/03/13 09:35:20;;;;;;;17.97;9.17;;;13.50;97.20;;;;;;5052166;28;20150;-75
2022/03/13 09:37:46;;;;;;;15.60;8.60;;;13.60;97.50;;;;;;5052058;28;20390;-76
2022/03/13 09:40:14;;;;;;;16.43;9.67;;;13.60;97.10;;;;;;5052772;28;20128;-75
2022/03/13 09:42:39;;;;;;;16.45;8.77;;;13.50;97.50;;;;;;5053855;28;20127;-75
2022/03/13 09:45:06;;;;;;;23.00;10.77;;;13.70;97.30;;;;;;5053222;28;20028;-76
2022/03/13 09:47:32;;;;;;;16.23;9.15;;;13.80;96.80;;;;;;5053590;28;20047;-86
2022/03/13 09:49:57;;;;;;;20.57;9.60;;;13.70;96.60;;;;;;5044864;28;20025;-75
2022/03/13 09:52:23;;;;;;;18.77;8.40;;;13.70;96.90;;;;;;5054585;28;20371;-76
2022/03/13 09:54:49;;;;;;;15.40;9.00;;;13.80;96.50;;;;;;5053389;28;20025;-76
2022/03/13 09:57:17;;;;;;;20.17;9.47;;;14.00;96.40;;;;;;5053643;28;20055;-87
2022/03/13 09:59:43;;;;;;;20.80;9.50;;;14.10;96.20;;;;;;5038136;28;20036;-86
2022/03/13 10:02:09;;;;;;;17.25;9.15;;;14.10;95.70;;;;;;5037768;28;20064;-80
2022/03/13 10:04:35;;;;;;;18.27;9.35;;;14.10;95.60;;;;;;5055425;28;20040;-76
2022/03/13 10:07:01;;;;;;;15.47;8.40;;;14.10;96.10;;;;;;5055872;28;20112;-75
2022/03/13 10:09:28;;;;;;;14.88;9.48;;;14.30;95.70;;;;;;5055977;28;20044;-84
2022/03/13 10:12:09;;;;;;;15.05;8.48;;;14.30;95.80;;;;;;5038145;28;20056;-87
2022/03/13 10:14:57;;;;;;;15.77;8.23;;;14.50;96.20;;;;;;5037643;28;20029;-88
2022/03/13 10:17:27;;;;;;;15.43;7.93;;;14.40;95.20;;;;;;5048903;28;20029;-85
2022/03/13 10:19:54;;;;;;;16.58;9.25;;;14.40;95.40;;;;;;5036646;28;20033;-77
2022/03/13 10:22:27;;;;;;;;;;;14.30;95.30;;;;;;5037462;28;20131;-76
2022/03/13 10:24:52;;;;;;;19.08;9.05;;;14.20;95.40;;;;;;5055016;28;19924;-86
2022/03/13 10:27:20;;;;;;;17.60;8.00;;;14.50;96.20;;;;;;5037373;28;20144;-79
2022/03/13 10:29:47;;;;;;;17.13;9.15;;;14.60;94.70;;;;;;5037460;28;20037;-86
2022/03/13 10:32:14;;;;;;;16.33;8.43;;;14.50;95.70;;;;;;5055460;28;20155;-75
2022/03/13 10:34:41;;;;;;;16.15;9.13;;;14.60;95.30;;;;;;5032402;28;20056;-75
2022/03/13 10:37:08;;;;;;;19.02;8.60;;;14.80;95.60;;;;;;5052799;28;20039;-75
2022/03/13 10:39:34;;;;;;;17.40;8.82;;;15.00;94.60;;;;;;5035637;28;20347;-75
2022/03/13 10:42:03;;;;;;;16.23;8.48;;;15.00;95.30;;;;;;5057156;28;20029;-76
2022/03/13 10:44:34;;;;;;;16.88;8.07;;;15.00;94.50;;;;;;5042270;28;20359;-75
2022/03/13 10:47:03;;;;;;;15.60;8.45;;;15.00;93.90;;;;;;5051218;28;20040;-76
2022/03/13 10:49:45;;;;;;;15.13;8.10;;;15.10;94.80;;;;;;5039191;28;20025;-77
2022/03/13 10:52:30;;;;;;;16.95;8.85;;;15.30;95.70;;;;;;5050880;28;20490;-76
2022/03/13 10:55:15;;;;;;;13.95;8.35;;;15.50;93.70;;;;;;5057001;28;20399;-76
2022/03/13 10:57:53;;;;;;;18.52;8.50;;;15.50;94.90;;;;;;5042593;28;20118;-86
2022/03/13 11:00:21;;;;;;;12.38;7.22;;;15.70;94.60;;;;;;5048108;28;20040;-75
2022/03/13 11:02:50;;;;;;;15.15;7.40;;;16.10;94.00;;;;;;5050210;28;20032;-76
2022/03/13 11:05:16;;;;;;;13.98;8.15;;;16.10;94.00;;;;;;5036913;28;20025;-76
2022/03/13 11:07:42;;;;;;;15.30;8.23;;;16.40;93.70;;;;;;5049574;28;20040;-76
2022/03/13 11:10:10;;;;;;;13.53;6.93;;;16.40;93.50;;;;;;5048213;28;20074;-78
2022/03/13 11:12:40;;;;;;;18.35;8.60;;;16.30;93.40;;;;;;5030856;28;20115;-76
2022/03/13 11:15:08;;;;;;;14.73;8.77;;;16.20;93.00;;;;;;5040752;28;20026;-76
2022/03/13 11:17:35;;;;;;;12.77;8.02;;;16.30;92.90;;;;;;5040625;28;20029;-75
2022/03/13 11:20:03;;;;;;;12.77;7.35;;;16.40;93.00;;;;;;5042401;28;20214;-76
2022/03/13 11:22:29;;;;;;;14.13;7.25;;;16.50;92.70;;;;;;5045608;28;20037;-77
2022/03/13 11:25:04;;;;;;;12.20;7.57;;;16.30;92.80;;;;;;5040563;28;20112;-76
2022/03/13 11:27:31;;;;;;;14.60;8.13;;;16.30;92.80;;;;;;5023184;28;20101;-76
2022/03/13 11:29:57;;;;;;;13.32;7.00;;;16.50;92.40;;;;;;5041736;28;20214;-83
2022/03/13 11:32:46;;;;;;;13.00;7.13;;;16.60;91.40;;;;;;5041006;28;20104;-81
2022/03/13 11:35:18;;;;;;;11.32;6.32;;;16.40;92.70;;;;;;5042041;28;20105;-84
2022/03/13 11:37:47;;;;;;;14.88;7.18;;;16.40;92.20;;;;;;5026686;28;20033;-77
2022/03/13 11:40:16;;;;;;;14.05;6.57;;;16.50;92.30;;;;;;5051202;28;20491;-76
2022/03/13 11:42:47;;;;;;;13.38;7.25;;;16.50;92.20;;;;;;5050945;28;20071;-78
2022/03/13 11:45:31;;;;;;;14.00;7.28;;;16.60;92.10;;;;;;5051196;28;20051;-76
2022/03/13 11:47:57;;;;;;;12.13;6.55;;;16.50;91.60;;;;;;5033054;28;20355;-76
2022/03/13 11:50:54;;;;;;;10.88;6.32;;;16.60;92.30;;;;;;5050943;28;20563;-76
2022/03/13 11:53:26;;;;;;;9.40;5.53;;;16.70;92.30;;;;;;5027591;28;20127;-83
2022/03/13 11:56:01;;;;;;;13.35;6.18;;;16.80;91.70;;;;;;5051121;28;20090;-76
2022/03/13 11:58:46;;;;;;;10.95;6.35;;;16.80;91.60;;;;;;5049746;28;20028;-76
2022/03/13 12:01:33;;;;;;;11.32;6.53;;;16.70;91.80;;;;;;5030644;28;20043;-76
2022/03/13 12:04:01;;;;;;;11.00;6.75;;;16.80;91.00;;;;;;5046202;28;20029;-76
2022/03/13 12:06:44;;;;;;;9.77;6.15;;;16.80;90.80;;;;;;5050415;28;20030;-78
2022/03/13 12:09:14;;;;;;;10.18;6.22;;;16.80;90.80;;;;;;5045719;28;20423;-76
2022/03/13 12:11:41;;;;;;;11.05;5.50;;;16.80;90.70;;;;;;5048713;28;20613;-77
2022/03/13 12:14:12;;;;;;;10.68;5.47;;;16.60;90.30;;;;;;5048328;28;20021;-77
2022/03/13 12:16:39;;;;;;;12.00;6.57;;;16.50;90.60;;;;;;5033543;28;20397;-76
2022/03/13 12:19:05;;;;;;;8.20;4.43;;;16.30;90.70;;;;;;5012676;28;20024;-77
2022/03/13 12:21:32;;;;;;;9.38;5.03;;;16.20;90.60;;;;;;5048153;28;20573;-76
2022/03/13 12:24:18;;;;;;;9.35;4.38;;;16.10;91.20;;;;;;5047743;28;20052;-77
2022/03/13 12:26:45;;;;;;;10.85;6.60;;;16.10;90.60;;;;;;5050851;28;20025;-77
2022/03/13 12:29:17;;;;;;;10.38;5.05;;;16.10;91.10;;;;;;5032989;28;20029;-83
2022/03/13 12:31:51;;;;;;;10.45;5.15;;;16.10;91.70;;;;;;5032169;28;20412;-76
2022/03/13 12:34:32;;;;;;;10.45;6.43;;;16.20;91.90;;;;;;5030008;28;20032;-77
2022/03/13 12:37:02;;;;;;;10.90;5.55;;;16.20;90.90;;;;;;5036698;28;20068;-76
2022/03/13 12:39:29;;;;;;;11.57;7.10;;;16.10;91.30;;;;;;5035668;28;20064;-79
2022/03/13 12:41:59;;;;;;;12.40;6.70;;;16.20;92.40;;;;;;5053498;28;20704;-82
2022/03/13 12:44:27;;;;;;;12.55;6.55;;;16.20;91.50;;;;;;5036490;28;20327;-76